sensor_id;sensor_type;location;lat;lon;timestamp;P1;durP1;ratioP1;P2;durP2;ratioP2
56629;SDS011;42502;40.732;-74.254;2023-04-24T00:00:35;4.45;;;0.60;;
56629;SDS011;42502;40.732;-74.254;2023-04-24T00:02:38;1.52;;;0.50;;
56629;SDS011;42502;40.732;-74.254;2023-04-24T00:04:41;3.03;;;0.60;;
56629;SDS011;42502;40.732;-74.254;2023-04-24T00:06:44;0.75;;;0.50;;
56629;SDS011;42502;40.732;-74.254;2023-04-24T00:08:49;1.80;;;0.60;;
56629;SDS011;42502;40.732;-74.254;2023-04-24T00:10:50;1.77;;;0.60;;
56629;SDS011;42502;40.732;-74.254;2023-04-24T00:12:52;2.47;;;0.60;;
56629;SDS011;42502;40.732;-74.254;2023-04-24T00:14:53;4.07;;;0.70;;
56629;SDS011;42502;40.732;-74.254;2023-04-24T00:16:54;3.72;;;0.93;;
56629;SDS011;42502;40.732;-74.254;2023-04-24T00:18:55;3.28;;;0.60;;
56629;SDS011;42502;40.732;-74.254;2023-04-24T00:21:06;2.25;;;0.65;;
56629;SDS011;42502;40.732;-74.254;2023-04-24T00:23:07;5.47;;;0.68;;
56629;SDS011;42502;40.732;-74.254;2023-04-24T00:25:08;4.07;;;0.80;;
56629;SDS011;42502;40.732;-74.254;2023-04-24T00:27:09;2.75;;;0.60;;
56629;SDS011;42502;40.732;-74.254;2023-04-24T00:29:10;3.72;;;0.88;;
56629;SDS011;42502;40.732;-74.254;2023-04-24T00:31:11;4.50;;;0.63;;
56629;SDS011;42502;40.732;-74.254;2023-04-24T00:33:12;4.70;;;1.00;;
56629;SDS011;42502;40.732;-74.254;2023-04-24T00:35:13;3.10;;;0.73;;
56629;SDS011;42502;40.732;-74.254;2023-04-24T00:37:14;3.42;;;0.65;;
56629;SDS011;42502;40.732;-74.254;2023-04-24T00:39:15;3.63;;;0.75;;
56629;SDS011;42502;40.732;-74.254;2023-04-24T00:41:17;4.25;;;0.80;;
56629;SDS011;42502;40.732;-74.254;2023-04-24T00:43:18;2.25;;;0.80;;
56629;SDS011;42502;40.732;-74.254;2023-04-24T00:45:19;3.88;;;0.63;;
56629;SDS011;42502;40.732;-74.254;2023-04-24T00:47:20;3.65;;;0.60;;
56629;SDS011;42502;40.732;-74.254;2023-04-24T00:49:22;5.47;;;1.00;;
56629;SDS011;42502;40.732;-74.254;2023-04-24T00:51:23;0.80;;;0.55;;
56629;SDS011;42502;40.732;-74.254;2023-04-24T00:53:24;2.70;;;0.60;;
56629;SDS011;42502;40.732;-74.254;2023-04-24T00:55:28;4.13;;;0.75;;
56629;SDS011;42502;40.732;-74.254;2023-04-24T00:57:29;10.40;;;0.93;;
56629;SDS011;42502;40.732;-74.254;2023-04-24T00:59:30;1.83;;;0.70;;
56629;SDS011;42502;40.732;-74.254;2023-04-24T01:01:32;4.03;;;0.70;;
56629;SDS011;42502;40.732;-74.254;2023-04-24T01:03:33;4.43;;;0.63;;
56629;SDS011;42502;40.732;-74.254;2023-04-24T01:05:37;7.68;;;0.70;;
56629;SDS011;42502;40.732;-74.254;2023-04-24T01:07:38;4.43;;;0.80;;
56629;SDS011;42502;40.732;-74.254;2023-04-24T01:09:47;6.07;;;0.70;;
56629;SDS011;42502;40.732;-74.254;2023-04-24T01:11:50;5.75;;;0.70;;
56629;SDS011;42502;40.732;-74.254;2023-04-24T01:13:57;3.17;;;0.70;;
56629;SDS011;42502;40.732;-74.254;2023-04-24T01:15:59;6.60;;;0.90;;
56629;SDS011;42502;40.732;-74.254;2023-04-24T01:18:01;1.73;;;0.75;;
56629;SDS011;42502;40.732;-74.254;2023-04-24T01:20:02;2.83;;;0.70;;
56629;SDS011;42502;40.732;-74.254;2023-04-24T01:22:23;3.50;;;0.80;;
56629;SDS011;42502;40.732;-74.254;2023-04-24T01:24:24;3.70;;;0.70;;
56629;SDS011;42502;40.732;-74.254;2023-04-24T01:26:25;2.90;;;0.90;;
56629;SDS011;42502;40.732;-74.254;2023-04-24T01:28:26;4.10;;;0.75;;
56629;SDS011;42502;40.732;-74.254;2023-04-24T01:30:27;4.10;;;0.70;;
56629;SDS011;42502;40.732;-74.254;2023-04-24T01:32:28;3.83;;;0.70;;
56629;SDS011;42502;40.732;-74.254;2023-04-24T01:34:29;4.65;;;0.70;;
56629;SDS011;42502;40.732;-74.254;2023-04-24T01:36:30;6.82;;;1.00;;
56629;SDS011;42502;40.732;-74.254;2023-04-24T01:38:33;8.68;;;1.10;;
56629;SDS011;42502;40.732;-74.254;2023-04-24T01:40:34;6.55;;;1.00;;
56629;SDS011;42502;40.732;-74.254;2023-04-24T01:42:35;5.68;;;1.00;;
56629;SDS011;42502;40.732;-74.254;2023-04-24T01:44:36;7.22;;;1.33;;
56629;SDS011;42502;40.732;-74.254;2023-04-24T01:46:37;4.40;;;1.00;;
56629;SDS011;42502;40.732;-74.254;2023-04-24T01:48:38;9.80;;;1.27;;
56629;SDS011;42502;40.732;-74.254;2023-04-24T01:50:40;7.30;;;1.00;;
56629;SDS011;42502;40.732;-74.254;2023-04-24T01:52:41;4.45;;;0.98;;
56629;SDS011;42502;40.732;-74.254;2023-04-24T01:54:42;7.13;;;1.20;;
56629;SDS011;42502;40.732;-74.254;2023-04-24T01:56:45;5.68;;;1.02;;
56629;SDS011;42502;40.732;-74.254;2023-04-24T01:58:48;12.30;;;1.50;;
56629;SDS011;42502;40.732;-74.254;2023-04-24T02:00:50;8.63;;;1.08;;
56629;SDS011;42502;40.732;-74.254;2023-04-24T02:02:51;9.25;;;1.13;;
56629;SDS011;42502;40.732;-74.254;2023-04-24T02:04:52;6.68;;;1.33;;
56629;SDS011;42502;40.732;-74.254;2023-04-24T02:06:54;4.97;;;1.23;;
56629;SDS011;42502;40.732;-74.254;2023-04-24T02:08:55;7.70;;;1.27;;
56629;SDS011;42502;40.732;-74.254;2023-04-24T02:10:56;5.93;;;1.00;;
56629;SDS011;42502;40.732;-74.254;2023-04-24T02:12:57;11.10;;;1.42;;
56629;SDS011;42502;40.732;-74.254;2023-04-24T02:14:59;13.52;;;2.10;;
56629;SDS011;42502;40.732;-74.254;2023-04-24T02:17:00;7.25;;;1.20;;
56629;SDS011;42502;40.732;-74.254;2023-04-24T02:19:01;7.25;;;1.70;;
56629;SDS011;42502;40.732;-74.254;2023-04-24T02:21:02;5.75;;;1.20;;
56629;SDS011;42502;40.732;-74.254;2023-04-24T02:23:03;9.18;;;1.30;;
56629;SDS011;42502;40.732;-74.254;2023-04-24T02:25:04;7.45;;;1.02;;
56629;SDS011;42502;40.732;-74.254;2023-04-24T02:27:06;4.82;;;1.20;;
56629;SDS011;42502;40.732;-74.254;2023-04-24T02:29:10;9.70;;;1.10;;
56629;SDS011;42502;40.732;-74.254;2023-04-24T02:31:13;5.03;;;0.88;;
56629;SDS011;42502;40.732;-74.254;2023-04-24T02:33:14;6.55;;;1.08;;
56629;SDS011;42502;40.732;-74.254;2023-04-24T02:35:15;4.35;;;1.00;;
56629;SDS011;42502;40.732;-74.254;2023-04-24T02:37:16;2.85;;;1.20;;
56629;SDS011;42502;40.732;-74.254;2023-04-24T02:39:17;4.45;;;1.30;;
56629;SDS011;42502;40.732;-74.254;2023-04-24T02:41:18;3.72;;;1.13;;
56629;SDS011;42502;40.732;-74.254;2023-04-24T02:43:19;5.07;;;1.00;;
56629;SDS011;42502;40.732;-74.254;2023-04-24T02:45:21;8.38;;;1.15;;
56629;SDS011;42502;40.732;-74.254;2023-04-24T02:47:24;8.48;;;1.17;;
56629;SDS011;42502;40.732;-74.254;2023-04-24T02:49:25;5.18;;;1.20;;
56629;SDS011;42502;40.732;-74.254;2023-04-24T02:51:27;4.97;;;1.17;;
56629;SDS011;42502;40.732;-74.254;2023-04-24T02:53:28;6.32;;;1.30;;
56629;SDS011;42502;40.732;-74.254;2023-04-24T02:55:30;6.20;;;1.00;;
56629;SDS011;42502;40.732;-74.254;2023-04-24T02:57:31;3.92;;;1.10;;
56629;SDS011;42502;40.732;-74.254;2023-04-24T02:59:32;3.83;;;1.02;;
56629;SDS011;42502;40.732;-74.254;2023-04-24T03:01:33;4.90;;;1.10;;
56629;SDS011;42502;40.732;-74.254;2023-04-24T03:03:34;3.47;;;1.02;;
56629;SDS011;42502;40.732;-74.254;2023-04-24T03:05:35;3.35;;;1.20;;
56629;SDS011;42502;40.732;-74.254;2023-04-24T03:07:36;5.00;;;1.00;;
56629;SDS011;42502;40.732;-74.254;2023-04-24T03:09:37;4.82;;;0.95;;
56629;SDS011;42502;40.732;-74.254;2023-04-24T03:11:38;3.17;;;1.08;;
56629;SDS011;42502;40.732;-74.254;2023-04-24T03:13:38;7.45;;;0.90;;
56629;SDS011;42502;40.732;-74.254;2023-04-24T03:15:39;5.72;;;1.02;;
56629;SDS011;42502;40.732;-74.254;2023-04-24T03:17:40;7.00;;;0.90;;
56629;SDS011;42502;40.732;-74.254;2023-04-24T03:19:41;4.65;;;1.02;;
56629;SDS011;42502;40.732;-74.254;2023-04-24T03:21:42;4.57;;;1.00;;
56629;SDS011;42502;40.732;-74.254;2023-04-24T03:23:43;4.22;;;0.80;;
56629;SDS011;42502;40.732;-74.254;2023-04-24T03:25:44;2.33;;;0.70;;
56629;SDS011;42502;40.732;-74.254;2023-04-24T03:27:45;3.47;;;0.90;;
56629;SDS011;42502;40.732;-74.254;2023-04-24T03:29:46;2.55;;;0.73;;
56629;SDS011;42502;40.732;-74.254;2023-04-24T03:31:47;1.83;;;0.80;;
56629;SDS011;42502;40.732;-74.254;2023-04-24T03:33:48;2.50;;;0.90;;
56629;SDS011;42502;40.732;-74.254;2023-04-24T03:35:56;2.25;;;0.80;;
56629;SDS011;42502;40.732;-74.254;2023-04-24T03:37:56;3.05;;;0.90;;
56629;SDS011;42502;40.732;-74.254;2023-04-24T03:39:57;1.98;;;0.88;;
56629;SDS011;42502;40.732;-74.254;2023-04-24T03:41:58;2.80;;;0.80;;
56629;SDS011;42502;40.732;-74.254;2023-04-24T03:44:00;1.20;;;0.80;;
56629;SDS011;42502;40.732;-74.254;2023-04-24T03:46:06;1.83;;;0.70;;
56629;SDS011;42502;40.732;-74.254;2023-04-24T03:48:09;2.15;;;0.70;;
56629;SDS011;42502;40.732;-74.254;2023-04-24T03:50:10;2.58;;;0.90;;
56629;SDS011;42502;40.732;-74.254;2023-04-24T03:52:11;2.17;;;0.77;;
56629;SDS011;42502;40.732;-74.254;2023-04-24T03:54:12;2.05;;;0.80;;
56629;SDS011;42502;40.732;-74.254;2023-04-24T03:56:13;1.40;;;0.70;;
56629;SDS011;42502;40.732;-74.254;2023-04-24T03:58:14;2.50;;;0.75;;
56629;SDS011;42502;40.732;-74.254;2023-04-24T04:00:16;1.80;;;0.77;;
56629;SDS011;42502;40.732;-74.254;2023-04-24T04:02:16;1.35;;;0.73;;
56629;SDS011;42502;40.732;-74.254;2023-04-24T04:04:17;1.10;;;0.73;;
56629;SDS011;42502;40.732;-74.254;2023-04-24T04:06:18;1.33;;;0.70;;
56629;SDS011;42502;40.732;-74.254;2023-04-24T04:08:19;3.40;;;0.65;;
56629;SDS011;42502;40.732;-74.254;2023-04-24T04:10:20;7.05;;;0.80;;
56629;SDS011;42502;40.732;-74.254;2023-04-24T04:12:21;2.05;;;0.70;;
56629;SDS011;42502;40.732;-74.254;2023-04-24T04:14:22;1.38;;;0.65;;
56629;SDS011;42502;40.732;-74.254;2023-04-24T04:16:23;2.70;;;0.60;;
56629;SDS011;42502;40.732;-74.254;2023-04-24T04:18:24;3.55;;;0.63;;
56629;SDS011;42502;40.732;-74.254;2023-04-24T04:20:25;1.13;;;0.60;;
56629;SDS011;42502;40.732;-74.254;2023-04-24T04:22:26;2.28;;;0.55;;
56629;SDS011;42502;40.732;-74.254;2023-04-24T04:24:27;1.85;;;0.70;;
56629;SDS011;42502;40.732;-74.254;2023-04-24T04:26:28;1.98;;;0.68;;
56629;SDS011;42502;40.732;-74.254;2023-04-24T04:28:32;0.70;;;0.50;;
56629;SDS011;42502;40.732;-74.254;2023-04-24T04:30:33;1.95;;;0.60;;
56629;SDS011;42502;40.732;-74.254;2023-04-24T04:32:34;1.42;;;0.70;;
56629;SDS011;42502;40.732;-74.254;2023-04-24T04:34:35;2.03;;;0.68;;
56629;SDS011;42502;40.732;-74.254;2023-04-24T04:36:37;2.70;;;0.70;;
56629;SDS011;42502;40.732;-74.254;2023-04-24T04:38:40;2.92;;;0.70;;
56629;SDS011;42502;40.732;-74.254;2023-04-24T04:40:43;3.15;;;0.60;;
56629;SDS011;42502;40.732;-74.254;2023-04-24T04:42:47;0.80;;;0.55;;
56629;SDS011;42502;40.732;-74.254;2023-04-24T04:44:48;0.60;;;0.52;;
56629;SDS011;42502;40.732;-74.254;2023-04-24T04:46:50;0.93;;;0.60;;
56629;SDS011;42502;40.732;-74.254;2023-04-24T04:48:53;2.63;;;0.60;;
56629;SDS011;42502;40.732;-74.254;2023-04-24T04:50:54;1.42;;;0.60;;
56629;SDS011;42502;40.732;-74.254;2023-04-24T04:52:55;1.27;;;0.60;;
56629;SDS011;42502;40.732;-74.254;2023-04-24T04:54:56;1.40;;;0.60;;
56629;SDS011;42502;40.732;-74.254;2023-04-24T04:56:57;1.65;;;0.50;;
56629;SDS011;42502;40.732;-74.254;2023-04-24T04:58:58;1.20;;;0.60;;
56629;SDS011;42502;40.732;-74.254;2023-04-24T05:01:02;2.80;;;0.50;;
56629;SDS011;42502;40.732;-74.254;2023-04-24T05:03:03;0.52;;;0.50;;
56629;SDS011;42502;40.732;-74.254;2023-04-24T05:05:07;1.73;;;0.50;;
56629;SDS011;42502;40.732;-74.254;2023-04-24T05:07:08;1.23;;;0.40;;
56629;SDS011;42502;40.732;-74.254;2023-04-24T05:09:09;1.77;;;0.40;;
56629;SDS011;42502;40.732;-74.254;2023-04-24T05:11:10;0.77;;;0.40;;
56629;SDS011;42502;40.732;-74.254;2023-04-24T05:13:11;0.88;;;0.50;;
56629;SDS011;42502;40.732;-74.254;2023-04-24T05:15:12;0.52;;;0.50;;
56629;SDS011;42502;40.732;-74.254;2023-04-24T05:17:13;1.50;;;0.50;;
56629;SDS011;42502;40.732;-74.254;2023-04-24T05:19:14;0.50;;;0.43;;
56629;SDS011;42502;40.732;-74.254;2023-04-24T05:21:14;0.93;;;0.50;;
56629;SDS011;42502;40.732;-74.254;2023-04-24T05:23:16;0.95;;;0.50;;
56629;SDS011;42502;40.732;-74.254;2023-04-24T05:25:17;1.63;;;0.60;;
56629;SDS011;42502;40.732;-74.254;2023-04-24T05:27:17;0.85;;;0.40;;
56629;SDS011;42502;40.732;-74.254;2023-04-24T05:29:18;2.83;;;0.60;;
56629;SDS011;42502;40.732;-74.254;2023-04-24T05:31:20;0.50;;;0.50;;
56629;SDS011;42502;40.732;-74.254;2023-04-24T05:33:21;0.95;;;0.43;;
56629;SDS011;42502;40.732;-74.254;2023-04-24T05:35:22;1.08;;;0.50;;
56629;SDS011;42502;40.732;-74.254;2023-04-24T05:37:23;0.40;;;0.40;;
56629;SDS011;42502;40.732;-74.254;2023-04-24T05:39:24;0.50;;;0.40;;
56629;SDS011;42502;40.732;-74.254;2023-04-24T05:41:25;0.60;;;0.40;;
56629;SDS011;42502;40.732;-74.254;2023-04-24T05:43:26;0.75;;;0.45;;
56629;SDS011;42502;40.732;-74.254;2023-04-24T05:45:26;0.40;;;0.40;;
56629;SDS011;42502;40.732;-74.254;2023-04-24T05:47:27;0.50;;;0.40;;
56629;SDS011;42502;40.732;-74.254;2023-04-24T05:49:28;0.35;;;0.32;;
56629;SDS011;42502;40.732;-74.254;2023-04-24T05:51:29;1.23;;;0.40;;
56629;SDS011;42502;40.732;-74.254;2023-04-24T05:53:31;0.40;;;0.40;;
56629;SDS011;42502;40.732;-74.254;2023-04-24T05:55:32;1.23;;;0.40;;
56629;SDS011;42502;40.732;-74.254;2023-04-24T05:57:33;0.95;;;0.40;;
56629;SDS011;42502;40.732;-74.254;2023-04-24T05:59:36;0.65;;;0.35;;
56629;SDS011;42502;40.732;-74.254;2023-04-24T06:01:44;0.98;;;0.40;;
56629;SDS011;42502;40.732;-74.254;2023-04-24T06:03:45;0.70;;;0.50;;
56629;SDS011;42502;40.732;-74.254;2023-04-24T06:05:46;0.80;;;0.50;;
56629;SDS011;42502;40.732;-74.254;2023-04-24T06:07:47;1.73;;;0.50;;
56629;SDS011;42502;40.732;-74.254;2023-04-24T06:09:48;0.35;;;0.35;;
56629;SDS011;42502;40.732;-74.254;2023-04-24T06:11:49;0.40;;;0.40;;
56629;SDS011;42502;40.732;-74.254;2023-04-24T06:13:52;0.38;;;0.38;;
56629;SDS011;42502;40.732;-74.254;2023-04-24T06:15:53;0.35;;;0.35;;
56629;SDS011;42502;40.732;-74.254;2023-04-24T06:17:54;0.30;;;0.30;;
56629;SDS011;42502;40.732;-74.254;2023-04-24T06:19:55;0.52;;;0.30;;
56629;SDS011;42502;40.732;-74.254;2023-04-24T06:21:59;0.80;;;0.40;;
56629;SDS011;42502;40.732;-74.254;2023-04-24T06:24:02;0.30;;;0.30;;
56629;SDS011;42502;40.732;-74.254;2023-04-24T06:26:04;0.30;;;0.30;;
56629;SDS011;42502;40.732;-74.254;2023-04-24T06:28:05;0.93;;;0.40;;
56629;SDS011;42502;40.732;-74.254;2023-04-24T06:30:06;0.75;;;0.35;;
56629;SDS011;42502;40.732;-74.254;2023-04-24T06:32:07;0.40;;;0.40;;
56629;SDS011;42502;40.732;-74.254;2023-04-24T06:34:08;0.30;;;0.30;;
56629;SDS011;42502;40.732;-74.254;2023-04-24T06:36:09;0.50;;;0.28;;
56629;SDS011;42502;40.732;-74.254;2023-04-24T06:38:10;0.60;;;0.40;;
56629;SDS011;42502;40.732;-74.254;2023-04-24T06:40:11;0.90;;;0.40;;
56629;SDS011;42502;40.732;-74.254;2023-04-24T06:42:12;0.40;;;0.30;;
56629;SDS011;42502;40.732;-74.254;2023-04-24T06:44:13;0.40;;;0.30;;
56629;SDS011;42502;40.732;-74.254;2023-04-24T06:46:14;0.75;;;0.30;;
56629;SDS011;42502;40.732;-74.254;2023-04-24T06:48:15;0.45;;;0.30;;
56629;SDS011;42502;40.732;-74.254;2023-04-24T06:50:16;0.63;;;0.30;;
56629;SDS011;42502;40.732;-74.254;2023-04-24T06:52:17;0.50;;;0.30;;
56629;SDS011;42502;40.732;-74.254;2023-04-24T06:54:18;0.57;;;0.30;;
56629;SDS011;42502;40.732;-74.254;2023-04-24T06:56:19;0.38;;;0.30;;
56629;SDS011;42502;40.732;-74.254;2023-04-24T06:58:20;0.30;;;0.30;;
56629;SDS011;42502;40.732;-74.254;2023-04-24T07:00:21;0.30;;;0.30;;
56629;SDS011;42502;40.732;-74.254;2023-04-24T07:02:24;0.32;;;0.30;;
56629;SDS011;42502;40.732;-74.254;2023-04-24T07:04:25;0.30;;;0.30;;
56629;SDS011;42502;40.732;-74.254;2023-04-24T07:06:26;0.30;;;0.30;;
56629;SDS011;42502;40.732;-74.254;2023-04-24T07:08:27;0.30;;;0.30;;
56629;SDS011;42502;40.732;-74.254;2023-04-24T07:10:30;0.20;;;0.20;;
56629;SDS011;42502;40.732;-74.254;2023-04-24T07:12:31;0.20;;;0.20;;
56629;SDS011;42502;40.732;-74.254;2023-04-24T07:14:32;0.45;;;0.30;;
56629;SDS011;42502;40.732;-74.254;2023-04-24T07:16:35;0.20;;;0.20;;
56629;SDS011;42502;40.732;-74.254;2023-04-24T07:18:38;0.22;;;0.20;;
56629;SDS011;42502;40.732;-74.254;2023-04-24T07:20:39;0.50;;;0.20;;
56629;SDS011;42502;40.732;-74.254;2023-04-24T07:22:41;0.38;;;0.20;;
56629;SDS011;42502;40.732;-74.254;2023-04-24T07:24:43;0.20;;;0.20;;
56629;SDS011;42502;40.732;-74.254;2023-04-24T07:26:44;0.60;;;0.20;;
56629;SDS011;42502;40.732;-74.254;2023-04-24T07:28:46;0.30;;;0.30;;
56629;SDS011;42502;40.732;-74.254;2023-04-24T07:30:47;0.20;;;0.20;;
56629;SDS011;42502;40.732;-74.254;2023-04-24T07:32:48;0.22;;;0.20;;
56629;SDS011;42502;40.732;-74.254;2023-04-24T07:34:49;0.60;;;0.22;;
56629;SDS011;42502;40.732;-74.254;2023-04-24T07:36:50;0.25;;;0.20;;
56629;SDS011;42502;40.732;-74.254;2023-04-24T07:38:51;0.20;;;0.20;;
56629;SDS011;42502;40.732;-74.254;2023-04-24T07:40:52;0.25;;;0.25;;
56629;SDS011;42502;40.732;-74.254;2023-04-24T07:42:53;0.40;;;0.20;;
56629;SDS011;42502;40.732;-74.254;2023-04-24T07:44:54;1.65;;;0.20;;
56629;SDS011;42502;40.732;-74.254;2023-04-24T07:46:55;0.20;;;0.20;;
56629;SDS011;42502;40.732;-74.254;2023-04-24T07:48:56;0.55;;;0.22;;
56629;SDS011;42502;40.732;-74.254;2023-04-24T07:50:59;0.60;;;0.10;;
56629;SDS011;42502;40.732;-74.254;2023-04-24T07:53:00;0.28;;;0.20;;
56629;SDS011;42502;40.732;-74.254;2023-04-24T07:55:03;0.28;;;0.20;;
56629;SDS011;42502;40.732;-74.254;2023-04-24T07:57:05;1.75;;;0.20;;
56629;SDS011;42502;40.732;-74.254;2023-04-24T07:59:06;0.55;;;0.20;;
56629;SDS011;42502;40.732;-74.254;2023-04-24T08:01:07;0.20;;;0.20;;
56629;SDS011;42502;40.732;-74.254;2023-04-24T08:03:08;0.20;;;0.20;;
56629;SDS011;42502;40.732;-74.254;2023-04-24T08:05:09;0.20;;;0.20;;
56629;SDS011;42502;40.732;-74.254;2023-04-24T08:07:10;0.30;;;0.13;;
56629;SDS011;42502;40.732;-74.254;2023-04-24T08:09:13;0.20;;;0.20;;
56629;SDS011;42502;40.732;-74.254;2023-04-24T08:11:13;0.17;;;0.10;;
56629;SDS011;42502;40.732;-74.254;2023-04-24T08:13:15;0.15;;;0.10;;
56629;SDS011;42502;40.732;-74.254;2023-04-24T08:15:15;0.20;;;0.20;;
56629;SDS011;42502;40.732;-74.254;2023-04-24T08:17:17;0.13;;;0.13;;
56629;SDS011;42502;40.732;-74.254;2023-04-24T08:19:18;0.15;;;0.15;;
56629;SDS011;42502;40.732;-74.254;2023-04-24T08:21:19;0.15;;;0.15;;
56629;SDS011;42502;40.732;-74.254;2023-04-24T08:23:20;0.10;;;0.10;;
56629;SDS011;42502;40.732;-74.254;2023-04-24T08:25:22;0.22;;;0.15;;
56629;SDS011;42502;40.732;-74.254;2023-04-24T08:27:26;0.20;;;0.20;;
56629;SDS011;42502;40.732;-74.254;2023-04-24T08:29:27;0.10;;;0.10;;
56629;SDS011;42502;40.732;-74.254;2023-04-24T08:31:28;0.50;;;0.13;;
56629;SDS011;42502;40.732;-74.254;2023-04-24T08:33:28;0.20;;;0.20;;
56629;SDS011;42502;40.732;-74.254;2023-04-24T08:35:34;0.10;;;0.10;;
56629;SDS011;42502;40.732;-74.254;2023-04-24T08:37:36;0.10;;;0.10;;
56629;SDS011;42502;40.732;-74.254;2023-04-24T08:39:42;0.20;;;0.10;;
56629;SDS011;42502;40.732;-74.254;2023-04-24T08:41:43;0.13;;;0.13;;
56629;SDS011;42502;40.732;-74.254;2023-04-24T08:43:45;0.10;;;0.10;;
56629;SDS011;42502;40.732;-74.254;2023-04-24T08:45:46;0.10;;;0.10;;
56629;SDS011;42502;40.732;-74.254;2023-04-24T08:47:47;0.10;;;0.10;;
56629;SDS011;42502;40.732;-74.254;2023-04-24T08:49:49;0.10;;;0.10;;
56629;SDS011;42502;40.732;-74.254;2023-04-24T08:51:52;0.10;;;0.10;;
56629;SDS011;42502;40.732;-74.254;2023-04-24T08:53:53;0.20;;;0.20;;
56629;SDS011;42502;40.732;-74.254;2023-04-24T08:55:55;0.40;;;0.17;;
56629;SDS011;42502;40.732;-74.254;2023-04-24T08:57:56;0.10;;;0.10;;
56629;SDS011;42502;40.732;-74.254;2023-04-24T09:00:01;0.10;;;0.10;;
56629;SDS011;42502;40.732;-74.254;2023-04-24T09:02:03;0.10;;;0.10;;
56629;SDS011;42502;40.732;-74.254;2023-04-24T09:04:05;0.20;;;0.10;;
56629;SDS011;42502;40.732;-74.254;2023-04-24T09:06:08;0.13;;;0.10;;
56629;SDS011;42502;40.732;-74.254;2023-04-24T09:08:12;0.10;;;0.10;;
56629;SDS011;42502;40.732;-74.254;2023-04-24T09:10:14;0.10;;;0.10;;
56629;SDS011;42502;40.732;-74.254;2023-04-24T09:12:15;0.10;;;0.10;;
56629;SDS011;42502;40.732;-74.254;2023-04-24T09:14:19;0.10;;;0.10;;
56629;SDS011;42502;40.732;-74.254;2023-04-24T09:16:21;0.10;;;0.10;;
56629;SDS011;42502;40.732;-74.254;2023-04-24T09:18:24;0.10;;;0.10;;
56629;SDS011;42502;40.732;-74.254;2023-04-24T09:20:26;0.15;;;0.10;;
56629;SDS011;42502;40.732;-74.254;2023-04-24T09:22:29;0.20;;;0.20;;
56629;SDS011;42502;40.732;-74.254;2023-04-24T09:24:30;0.10;;;0.10;;
56629;SDS011;42502;40.732;-74.254;2023-04-24T09:26:31;0.10;;;0.10;;
56629;SDS011;42502;40.732;-74.254;2023-04-24T09:28:36;0.17;;;0.17;;
56629;SDS011;42502;40.732;-74.254;2023-04-24T09:30:39;0.15;;;0.10;;
56629;SDS011;42502;40.732;-74.254;2023-04-24T09:32:39;0.10;;;0.10;;
56629;SDS011;42502;40.732;-74.254;2023-04-24T09:34:43;0.10;;;0.10;;
56629;SDS011;42502;40.732;-74.254;2023-04-24T09:36:48;0.20;;;0.20;;
56629;SDS011;42502;40.732;-74.254;2023-04-24T09:38:53;0.10;;;0.10;;
56629;SDS011;42502;40.732;-74.254;2023-04-24T09:41:07;0.10;;;0.10;;
56629;SDS011;42502;40.732;-74.254;2023-04-24T09:43:13;0.20;;;0.13;;
56629;SDS011;42502;40.732;-74.254;2023-04-24T09:45:15;0.10;;;0.10;;
56629;SDS011;42502;40.732;-74.254;2023-04-24T09:47:16;0.85;;;0.10;;
56629;SDS011;42502;40.732;-74.254;2023-04-24T09:49:21;0.25;;;0.10;;
56629;SDS011;42502;40.732;-74.254;2023-04-24T09:51:33;0.20;;;0.20;;
56629;SDS011;42502;40.732;-74.254;2023-04-24T09:53:38;0.20;;;0.10;;
56629;SDS011;42502;40.732;-74.254;2023-04-24T09:55:45;0.22;;;0.10;;
56629;SDS011;42502;40.732;-74.254;2023-04-24T09:58:00;0.30;;;0.10;;
56629;SDS011;42502;40.732;-74.254;2023-04-24T10:00:01;0.20;;;0.10;;
56629;SDS011;42502;40.732;-74.254;2023-04-24T10:02:03;0.10;;;0.10;;
56629;SDS011;42502;40.732;-74.254;2023-04-24T10:06:29;0.00;;;0.00;;
56629;SDS011;42502;40.732;-74.254;2023-04-24T10:08:42;0.20;;;0.13;;
56629;SDS011;42502;40.732;-74.254;2023-04-24T10:10:44;0.17;;;0.17;;
56629;SDS011;42502;40.732;-74.254;2023-04-24T10:12:46;0.68;;;0.15;;
56629;SDS011;42502;40.732;-74.254;2023-04-24T10:14:48;0.10;;;0.10;;
56629;SDS011;42502;40.732;-74.254;2023-04-24T10:16:54;0.52;;;0.10;;
56629;SDS011;42502;40.732;-74.254;2023-04-24T10:18:58;0.13;;;0.10;;
56629;SDS011;42502;40.732;-74.254;2023-04-24T10:21:00;0.65;;;0.10;;
56629;SDS011;42502;40.732;-74.254;2023-04-24T10:23:02;0.10;;;0.10;;
56629;SDS011;42502;40.732;-74.254;2023-04-24T10:25:04;0.13;;;0.10;;
56629;SDS011;42502;40.732;-74.254;2023-04-24T10:27:06;0.10;;;0.10;;
56629;SDS011;42502;40.732;-74.254;2023-04-24T10:29:11;0.80;;;0.10;;
56629;SDS011;42502;40.732;-74.254;2023-04-24T10:31:13;0.85;;;0.17;;
56629;SDS011;42502;40.732;-74.254;2023-04-24T10:33:15;0.10;;;0.10;;
56629;SDS011;42502;40.732;-74.254;2023-04-24T10:35:17;0.70;;;0.20;;
56629;SDS011;42502;40.732;-74.254;2023-04-24T10:37:22;1.25;;;0.17;;
56629;SDS011;42502;40.732;-74.254;2023-04-24T10:39:25;0.10;;;0.10;;
56629;SDS011;42502;40.732;-74.254;2023-04-24T10:41:26;0.10;;;0.10;;
56629;SDS011;42502;40.732;-74.254;2023-04-24T10:43:30;0.22;;;0.10;;
56629;SDS011;42502;40.732;-74.254;2023-04-24T10:45:33;0.25;;;0.10;;
56629;SDS011;42502;40.732;-74.254;2023-04-24T10:47:40;1.02;;;0.10;;
56629;SDS011;42502;40.732;-74.254;2023-04-24T10:49:42;0.22;;;0.13;;
56629;SDS011;42502;40.732;-74.254;2023-04-24T10:52:02;0.55;;;0.20;;
56629;SDS011;42502;40.732;-74.254;2023-04-24T10:54:21;1.85;;;0.10;;
56629;SDS011;42502;40.732;-74.254;2023-04-24T10:56:26;0.57;;;0.10;;
56629;SDS011;42502;40.732;-74.254;2023-04-24T10:58:37;1.10;;;0.10;;
56629;SDS011;42502;40.732;-74.254;2023-04-24T11:00:41;1.58;;;0.20;;
56629;SDS011;42502;40.732;-74.254;2023-04-24T11:02:45;1.17;;;0.20;;
56629;SDS011;42502;40.732;-74.254;2023-04-24T11:04:50;1.58;;;0.28;;
56629;SDS011;42502;40.732;-74.254;2023-04-24T11:06:51;0.43;;;0.20;;
56629;SDS011;42502;40.732;-74.254;2023-04-24T11:08:52;1.10;;;0.20;;
56629;SDS011;42502;40.732;-74.254;2023-04-24T11:11:09;1.35;;;0.20;;
56629;SDS011;42502;40.732;-74.254;2023-04-24T11:13:20;0.63;;;0.20;;
56629;SDS011;42502;40.732;-74.254;2023-04-24T11:15:22;1.08;;;0.20;;
56629;SDS011;42502;40.732;-74.254;2023-04-24T11:19:38;3.58;;;0.20;;
56629;SDS011;42502;40.732;-74.254;2023-04-24T11:21:56;2.40;;;0.20;;
56629;SDS011;42502;40.732;-74.254;2023-04-24T11:24:21;2.25;;;0.20;;
56629;SDS011;42502;40.732;-74.254;2023-04-24T11:26:25;1.75;;;0.30;;
56629;SDS011;42502;40.732;-74.254;2023-04-24T11:28:32;1.15;;;0.20;;
56629;SDS011;42502;40.732;-74.254;2023-04-24T11:30:33;2.28;;;0.20;;
56629;SDS011;42502;40.732;-74.254;2023-04-24T11:32:36;1.17;;;0.30;;
56629;SDS011;42502;40.732;-74.254;2023-04-24T11:34:38;4.43;;;0.30;;
56629;SDS011;42502;40.732;-74.254;2023-04-24T11:36:42;2.90;;;0.22;;
56629;SDS011;42502;40.732;-74.254;2023-04-24T11:38:43;3.97;;;0.20;;
56629;SDS011;42502;40.732;-74.254;2023-04-24T11:40:45;2.28;;;0.30;;
56629;SDS011;42502;40.732;-74.254;2023-04-24T11:42:47;3.20;;;0.43;;
56629;SDS011;42502;40.732;-74.254;2023-04-24T11:44:52;2.00;;;0.20;;
56629;SDS011;42502;40.732;-74.254;2023-04-24T11:46:56;0.85;;;0.20;;
56629;SDS011;42502;40.732;-74.254;2023-04-24T11:48:57;2.65;;;0.20;;
56629;SDS011;42502;40.732;-74.254;2023-04-24T11:51:01;1.52;;;0.20;;
56629;SDS011;42502;40.732;-74.254;2023-04-24T11:53:02;1.50;;;0.25;;
56629;SDS011;42502;40.732;-74.254;2023-04-24T11:55:06;1.73;;;0.30;;
56629;SDS011;42502;40.732;-74.254;2023-04-24T11:57:27;2.88;;;0.28;;
56629;SDS011;42502;40.732;-74.254;2023-04-24T11:59:36;2.33;;;0.20;;